createdAt,value
2019-03-21T00:00:02.966Z,9.00
2019-03-21T00:05:09.246Z,9.20
2019-03-21T00:10:41.430Z,9.10
2019-03-21T00:15:47.142Z,9.00
2019-03-21T00:20:52.828Z,8.90
2019-03-21T00:25:58.189Z,8.80
2019-03-21T00:31:04.111Z,8.70
2019-03-21T00:36:09.792Z,8.80
2019-03-21T00:41:15.220Z,8.80
2019-03-21T00:46:20.953Z,8.70
2019-03-21T00:51:26.787Z,8.70
2019-03-21T00:56:32.470Z,8.70
2019-03-21T01:01:38.757Z,8.70
2019-03-21T01:06:44.137Z,8.80
2019-03-21T01:11:50.357Z,8.80
2019-03-21T01:16:56.026Z,8.50
2019-03-21T01:22:01.464Z,8.30
2019-03-21T01:27:07.180Z,8.10
2019-03-21T01:32:12.729Z,8.40
2019-03-21T01:37:18.075Z,8.50
2019-03-21T01:42:24.066Z,8.50
2019-03-21T01:47:29.816Z,8.50
2019-03-21T01:52:35.479Z,8.20
2019-03-21T01:57:40.990Z,8.30
2019-03-21T02:02:47.505Z,8.30
2019-03-21T02:07:53.601Z,8.30
2019-03-21T02:12:59.348Z,8.00
2019-03-21T02:18:05.069Z,7.20
2019-03-21T02:23:10.753Z,7.20
2019-03-21T02:28:16.461Z,7.40
2019-03-21T02:33:25.121Z,7.10
2019-03-21T02:38:30.568Z,7.20
2019-03-21T02:43:35.993Z,7.70
2019-03-21T02:48:42.290Z,7.70
2019-03-21T02:53:48.007Z,6.60
2019-03-21T02:58:53.603Z,6.60
2019-03-21T03:03:59.458Z,7.50
2019-03-21T03:09:07.542Z,7.60
2019-03-21T03:14:12.978Z,7.50
2019-03-21T03:19:18.258Z,7.30
2019-03-21T03:24:25.634Z,7.40
2019-03-21T03:29:31.182Z,6.90
2019-03-21T03:34:37.048Z,7.30
2019-03-21T03:39:42.478Z,7.20
2019-03-21T03:44:48.239Z,7.20
2019-03-21T03:49:53.639Z,7.30
2019-03-21T03:54:59.234Z,6.90
2019-03-21T04:00:05.606Z,7.00
2019-03-21T04:05:11.330Z,6.60
2019-03-21T04:10:22.450Z,6.60
2019-03-21T04:15:27.893Z,7.10
2019-03-21T04:20:34.797Z,6.50
2019-03-21T04:25:49.497Z,6.80
2019-03-21T04:30:54.904Z,7.10
2019-03-21T04:36:00.982Z,7.10
2019-03-21T04:41:06.876Z,7.00
2019-03-21T04:46:12.313Z,6.70
2019-03-21T04:51:18.212Z,6.90
2019-03-21T04:56:23.789Z,6.50
2019-03-21T05:01:29.252Z,6.30
2019-03-21T05:06:35.102Z,6.10
2019-03-21T05:11:40.465Z,6.40
2019-03-21T05:16:46.146Z,6.40
2019-03-21T05:21:51.925Z,6.00
2019-03-21T05:26:57.821Z,5.90
2019-03-21T05:32:03.908Z,6.50
2019-03-21T05:37:09.401Z,6.50
2019-03-21T05:42:19.109Z,6.70
2019-03-21T05:47:24.726Z,6.70
2019-03-21T05:52:30.641Z,5.90
2019-03-21T05:57:36.310Z,6.30
2019-03-21T06:02:42.011Z,6.10
2019-03-21T06:08:15.677Z,6.60
2019-03-21T06:13:21.113Z,6.70
2019-03-21T06:18:50.008Z,6.40
2019-03-21T06:24:21.004Z,6.30
2019-03-21T06:29:26.973Z,6.60
2019-03-21T06:34:32.462Z,6.50
2019-03-21T06:39:37.909Z,6.70
2019-03-21T06:44:43.328Z,7.00
2019-03-21T06:49:49.202Z,7.10
2019-03-21T06:54:54.925Z,7.20
2019-03-21T07:00:00.794Z,7.30
2019-03-21T07:05:07.485Z,7.50
2019-03-21T07:10:13.757Z,7.60
2019-03-21T07:15:19.147Z,7.30
2019-03-21T07:20:24.833Z,7.30
2019-03-21T07:25:30.209Z,7.50
2019-03-21T07:30:35.939Z,7.60
2019-03-21T07:35:41.553Z,7.80
2019-03-21T07:40:47.338Z,7.80
2019-03-21T07:45:53.026Z,8.30
2019-03-21T07:50:58.373Z,8.60
2019-03-21T07:56:04.974Z,8.60
2019-03-21T08:01:10.413Z,8.90
2019-03-21T08:06:15.847Z,9.00
2019-03-21T08:11:21.306Z,9.40
2019-03-21T08:16:26.877Z,9.40
2019-03-21T08:21:32.522Z,9.40
2019-03-21T08:26:38.713Z,9.70
2019-03-21T08:31:44.392Z,9.90
2019-03-21T08:36:50.145Z,9.90
2019-03-21T08:41:55.774Z,10.10
2019-03-21T08:47:01.224Z,10.30
2019-03-21T08:52:07.176Z,10.40
2019-03-21T08:57:12.979Z,10.70
2019-03-21T09:02:18.714Z,10.90
2019-03-21T09:07:24.465Z,10.90
2019-03-21T09:12:30.488Z,11.40
2019-03-21T09:17:36.233Z,11.50
2019-03-21T09:22:46.693Z,11.60
2019-03-21T09:28:02.213Z,11.80
2019-03-21T09:32:59.869Z,12.00
2019-03-21T09:38:05.666Z,12.00
2019-03-21T09:43:11.443Z,12.00
2019-03-21T09:48:17.053Z,12.10
2019-03-21T09:53:22.800Z,12.00
2019-03-21T09:58:28.613Z,12.40
2019-03-21T10:03:34.213Z,12.40
2019-03-21T10:08:40.052Z,12.50
2019-03-21T10:13:45.741Z,12.60
2019-03-21T10:18:51.241Z,12.60
2019-03-21T10:23:56.779Z,12.60
2019-03-21T10:29:03.141Z,12.90
2019-03-21T10:34:08.827Z,13.10
2019-03-21T10:39:14.582Z,13.00
2019-03-21T10:44:21.362Z,13.40
2019-03-21T10:49:26.776Z,13.40
2019-03-21T10:54:32.893Z,13.60
2019-03-21T10:59:38.761Z,13.50
2019-03-21T11:04:44.946Z,13.60
2019-03-21T11:09:50.714Z,13.60
2019-03-21T11:14:57.497Z,13.50
2019-03-21T11:20:03.203Z,13.60
2019-03-21T11:25:09.039Z,13.60
2019-03-21T11:30:17.639Z,13.60
2019-03-21T11:35:23.334Z,13.80
2019-03-21T11:40:29.479Z,14.00
2019-03-21T11:45:34.925Z,14.30
2019-03-21T11:50:40.769Z,14.40
2019-03-21T11:55:46.417Z,14.20
2019-03-21T12:00:52.208Z,14.30
2019-03-21T12:05:57.733Z,14.50
2019-03-21T12:11:03.414Z,14.70
2019-03-21T12:16:09.289Z,14.70
2019-03-21T12:21:15.106Z,14.70
2019-03-21T12:26:20.817Z,15.00
2019-03-21T12:31:26.478Z,14.70
2019-03-21T12:36:32.085Z,14.80
2019-03-21T12:41:37.540Z,15.10
2019-03-21T12:46:43.271Z,15.10
2019-03-21T12:51:49.633Z,15.10
2019-03-21T12:56:55.732Z,15.20
2019-03-21T13:02:01.094Z,15.30
2019-03-21T13:07:06.961Z,15.20
2019-03-21T13:12:12.729Z,14.90
2019-03-21T13:17:18.697Z,15.30
2019-03-21T13:22:24.437Z,15.50
2019-03-21T13:27:30.463Z,15.60
2019-03-21T13:32:36.110Z,15.40
2019-03-21T13:37:41.520Z,15.00
2019-03-21T13:42:47.043Z,15.40
2019-03-21T13:47:52.791Z,15.40
2019-03-21T13:53:04.770Z,15.10
2019-03-21T13:58:05.976Z,15.40
2019-03-21T14:03:11.738Z,15.30
2019-03-21T14:08:17.152Z,15.30
2019-03-21T14:13:23.079Z,15.20
2019-03-21T14:18:28.498Z,15.20
2019-03-21T14:23:43.352Z,15.50
2019-03-21T14:28:42.319Z,15.70
2019-03-21T14:33:48.617Z,15.60
2019-03-21T14:38:54.723Z,15.50
2019-03-21T14:44:00.542Z,15.60
2019-03-21T14:49:05.958Z,15.60
2019-03-21T14:54:11.670Z,15.50
2019-03-21T14:59:17.104Z,15.40
2019-03-21T15:04:22.997Z,15.60
2019-03-21T15:09:28.421Z,15.50
2019-03-21T15:14:34.129Z,15.40
2019-03-21T15:19:40.101Z,15.40
2019-03-21T15:24:45.762Z,15.40
2019-03-21T15:29:51.061Z,15.30
2019-03-21T15:34:56.971Z,15.30
2019-03-21T15:40:03.079Z,15.20
2019-03-21T15:45:22.314Z,15.20
2019-03-21T15:50:38.296Z,15.20
2019-03-21T15:55:44.452Z,15.10
2019-03-21T16:00:50.284Z,15.10
2019-03-21T16:05:55.987Z,15.10
2019-03-21T16:11:01.424Z,15.10
2019-03-21T16:16:07.109Z,15.10
2019-03-21T16:21:12.622Z,15.00
2019-03-21T16:26:20.879Z,15.00
2019-03-21T16:31:26.738Z,15.00
2019-03-21T16:36:32.457Z,15.00
2019-03-21T16:41:40.241Z,14.90
2019-03-21T16:46:46.018Z,14.90
2019-03-21T16:51:51.695Z,14.90
2019-03-21T16:56:57.375Z,14.90
2019-03-21T17:02:02.804Z,14.70
2019-03-21T17:07:08.664Z,14.60
2019-03-21T17:12:14.370Z,14.40
2019-03-21T17:17:20.396Z,14.30
2019-03-21T17:22:25.873Z,14.30
2019-03-21T17:27:31.687Z,14.30
2019-03-21T17:32:37.435Z,14.10
2019-03-21T17:37:43.243Z,14.10
2019-03-21T17:42:48.744Z,14.00
2019-03-21T17:47:54.293Z,13.90
2019-03-21T17:53:00.137Z,13.70
2019-03-21T17:58:05.872Z,13.80
2019-03-21T18:03:14.934Z,13.90
2019-03-21T18:08:21.418Z,13.90
2019-03-21T18:13:27.081Z,14.30
2019-03-21T18:18:34.464Z,14.30
2019-03-21T18:23:40.138Z,14.20
2019-03-21T18:28:45.874Z,14.30
2019-03-21T18:33:51.797Z,14.10
2019-03-21T18:38:59.806Z,14.10
2019-03-21T18:44:04.934Z,13.90
2019-03-21T18:49:10.597Z,13.90
2019-03-21T18:54:16.480Z,13.90
2019-03-21T18:59:22.902Z,13.70
2019-03-21T19:04:28.647Z,13.60
2019-03-21T19:09:34.083Z,13.60
2019-03-21T19:14:39.795Z,13.40
2019-03-21T19:19:45.228Z,13.40
2019-03-21T19:24:50.942Z,13.40
2019-03-21T19:29:56.465Z,13.20
2019-03-21T19:35:01.894Z,13.10
2019-03-21T19:40:08.279Z,13.00
2019-03-21T19:45:14.151Z,13.00
2019-03-21T19:50:20.172Z,13.00
2019-03-21T19:55:30.835Z,12.80
2019-03-21T20:00:32.834Z,12.70
2019-03-21T20:05:38.702Z,12.60
2019-03-21T20:10:44.595Z,12.60
2019-03-21T20:15:50.413Z,12.50
2019-03-21T20:20:56.102Z,12.50
2019-03-21T20:26:01.767Z,12.50
2019-03-21T20:31:07.192Z,12.50
2019-03-21T20:36:12.810Z,12.30
2019-03-21T20:41:18.572Z,12.30
2019-03-21T20:46:24.329Z,12.20
2019-03-21T20:51:30.008Z,12.10
2019-03-21T20:56:37.875Z,12.00
2019-03-21T21:01:43.336Z,12.00
2019-03-21T21:06:49.041Z,12.00
2019-03-21T21:11:57.123Z,12.00
2019-03-21T21:17:02.842Z,11.90
2019-03-21T21:22:08.190Z,11.80
2019-03-21T21:27:13.893Z,11.70
2019-03-21T21:32:19.514Z,11.80
2019-03-21T21:37:25.382Z,11.80
2019-03-21T21:42:30.900Z,11.80
2019-03-21T21:47:36.608Z,11.70
2019-03-21T21:52:42.600Z,11.50
2019-03-21T21:57:48.490Z,11.50
2019-03-21T22:02:53.983Z,11.40
2019-03-21T22:07:59.838Z,11.40
2019-03-21T22:13:05.681Z,11.30
2019-03-21T22:18:10.953Z,11.30
2019-03-21T22:23:16.682Z,11.20
2019-03-21T22:28:22.385Z,11.20
2019-03-21T22:33:28.160Z,11.10
2019-03-21T22:38:33.550Z,11.10
2019-03-21T22:43:39.096Z,11.10
2019-03-21T22:48:44.522Z,11.10
2019-03-21T22:53:50.145Z,11.00
2019-03-21T22:58:55.792Z,10.90
2019-03-21T23:04:02.865Z,10.80
2019-03-21T23:09:09.343Z,10.80
2019-03-21T23:14:15.264Z,10.80
2019-03-21T23:19:20.886Z,10.80
2019-03-21T23:24:26.561Z,10.80
2019-03-21T23:29:31.973Z,10.70
2019-03-21T23:34:37.690Z,10.60
2019-03-21T23:39:43.806Z,10.50
2019-03-21T23:44:49.774Z,10.50
2019-03-21T23:49:56.054Z,10.40
2019-03-21T23:55:01.738Z,10.40
